Terminal Aerodrome Forecast
Issued by NWS

Home | Current Version | Previous Version | Text Only | Print | Product List | Glossary On
Versions: 1 2 3 4 5 6 7 8 9 10 11 12 13 14 15 16 17 18 19 20 21 22 23 24 25 26 27 28
000
FTUS43 KMKX 250746 AAB
TAFUES
TAF AMD
KUES 250746Z 2508/2606 26010KT P6SM BKN008
      TEMPO 2508/2510 5SM BR SCT008 BKN010
     FM251000 28006KT P6SM SCT025
     FM251300 29008KT P6SM FEW250
     FM251700 30012G20KT P6SM SKC
     FM260000 28008KT P6SM SKC=

USA.gov is the U.S. government's official web portal to all federal, state and local government web resources and services.